createdAt,value
2023-04-18T00:00:30.000Z,435.3511657714844
2023-04-18T00:01:32.000Z,435.86651611328125
2023-04-18T00:02:35.000Z,437.04351806640625
2023-04-18T00:03:37.000Z,438.0504455566406
2023-04-18T00:04:39.000Z,436.6437072753906
2023-04-18T00:05:41.000Z,434.2301330566406
2023-04-18T00:06:44.000Z,433.6162414550781
2023-04-18T00:07:46.000Z,433.31719970703125
2023-04-18T00:08:48.000Z,433.9768981933594
2023-04-18T00:09:50.000Z,435.0018005371094
2023-04-18T00:10:53.000Z,435.723388671875
2023-04-18T00:11:55.000Z,435.5671691894531
2023-04-18T00:12:57.000Z,436.3711853027344
2023-04-18T00:13:59.000Z,432.55535888671875
2023-04-18T00:15:02.000Z,432.5155334472656
2023-04-18T00:16:04.000Z,434.0365295410156
2023-04-18T00:17:06.000Z,432.1396179199219
2023-04-18T00:18:08.000Z,430.38031005859375
2023-04-18T00:19:11.000Z,428.5757751464844
2023-04-18T00:20:13.000Z,427.1883239746094
2023-04-18T00:21:15.000Z,427.4750671386719
2023-04-18T00:22:17.000Z,428.119140625
2023-04-18T00:23:20.000Z,430.976806640625
2023-04-18T00:24:22.000Z,432.1667175292969
2023-04-18T00:25:24.000Z,432.25079345703125
2023-04-18T00:26:26.000Z,432.76654052734375
2023-04-18T00:27:29.000Z,432.1423034667969
2023-04-18T00:28:31.000Z,432.25787353515625
2023-04-18T00:29:33.000Z,433.0203857421875
2023-04-18T00:30:35.000Z,432.4005126953125
2023-04-18T00:31:38.000Z,432.3441467285156
2023-04-18T00:32:40.000Z,429.8948974609375
2023-04-18T00:33:42.000Z,430.01678466796875
2023-04-18T00:34:44.000Z,430.1109924316406
2023-04-18T00:35:47.000Z,429.6132507324219
2023-04-18T00:36:49.000Z,428.5583801269531
2023-04-18T00:37:51.000Z,428.59503173828125
2023-04-18T00:38:53.000Z,428.9677429199219
2023-04-18T00:39:56.000Z,429.3133544921875
2023-04-18T00:40:58.000Z,432.2878723144531
2023-04-18T00:42:00.000Z,431.3445739746094
2023-04-18T00:43:02.000Z,433.8118896484375
2023-04-18T00:44:05.000Z,432.87078857421875
2023-04-18T00:45:07.000Z,435.1826171875
2023-04-18T00:46:09.000Z,434.28460693359375
2023-04-18T00:47:11.000Z,431.9800720214844
2023-04-18T00:48:14.000Z,430.6858825683594
2023-04-18T00:49:16.000Z,430.776611328125
2023-04-18T00:50:18.000Z,433.8784484863281
2023-04-18T00:51:20.000Z,431.6932678222656
2023-04-18T00:52:23.000Z,432.42816162109375
2023-04-18T00:53:25.000Z,432.527099609375
2023-04-18T00:54:27.000Z,432.210205078125
2023-04-18T00:55:29.000Z,432.30938720703125
2023-04-18T00:56:32.000Z,430.9936218261719
2023-04-18T00:57:34.000Z,433.26190185546875
2023-04-18T00:58:36.000Z,433.9851989746094
2023-04-18T00:59:38.000Z,433.2083740234375
2023-04-18T01:00:41.000Z,432.9228210449219
2023-04-18T01:01:43.000Z,431.7150573730469
2023-04-18T01:02:45.000Z,429.9920959472656
2023-04-18T01:03:47.000Z,430.8628845214844
2023-04-18T01:04:50.000Z,429.0035705566406
2023-04-18T01:05:52.000Z,435.4165344238281
2023-04-18T01:06:54.000Z,436.9749450683594
2023-04-18T01:07:56.000Z,437.3607177734375
2023-04-18T01:08:58.000Z,437.1533203125
2023-04-18T01:10:01.000Z,436.0201416015625
2023-04-18T01:11:03.000Z,434.0867614746094
2023-04-18T01:12:05.000Z,434.6181640625
2023-04-18T01:13:07.000Z,434.125
2023-04-18T01:14:10.000Z,432.68011474609375
2023-04-18T01:15:12.000Z,435.16143798828125
2023-04-18T01:16:14.000Z,435.3689880371094
2023-04-18T01:17:16.000Z,435.30322265625
2023-04-18T01:18:19.000Z,436.58978271484375
2023-04-18T01:19:21.000Z,436.96734619140625
2023-04-18T01:20:23.000Z,435.3182067871094
2023-04-18T01:21:26.000Z,435.1363525390625
2023-04-18T01:22:28.000Z,436.625
2023-04-18T01:23:30.000Z,437.1585693359375
2023-04-18T01:24:32.000Z,437.1920166015625
2023-04-18T01:25:35.000Z,434.778076171875
2023-04-18T01:26:37.000Z,434.0164794921875
2023-04-18T01:27:39.000Z,433.8094787597656
2023-04-18T01:28:41.000Z,433.303466796875
2023-04-18T01:29:44.000Z,432.8795166015625
2023-04-18T01:30:46.000Z,432.7010803222656
2023-04-18T01:31:48.000Z,431.9196472167969
2023-04-18T01:32:50.000Z,433.7454528808594
2023-04-18T01:33:53.000Z,432.8668518066406
2023-04-18T01:34:55.000Z,435.4162292480469
2023-04-18T01:35:57.000Z,438.0509338378906
2023-04-18T01:37:00.000Z,437.2276611328125
2023-04-18T01:38:02.000Z,438.8638916015625
2023-04-18T01:39:04.000Z,435.78570556640625
2023-04-18T01:40:06.000Z,434.0464172363281
2023-04-18T01:41:09.000Z,432.1504211425781
2023-04-18T01:42:11.000Z,432.7644348144531
2023-04-18T01:43:13.000Z,432.0247802734375
2023-04-18T01:44:15.000Z,435.34393310546875
2023-04-18T01:45:18.000Z,434.911376953125
2023-04-18T01:46:20.000Z,436.6341857910156
2023-04-18T01:47:22.000Z,435.39361572265625
2023-04-18T01:48:24.000Z,434.695068359375
2023-04-18T01:49:27.000Z,433.32855224609375
2023-04-18T01:50:29.000Z,433.073974609375
2023-04-18T01:51:31.000Z,433.7591247558594
2023-04-18T01:52:33.000Z,436.03369140625
2023-04-18T01:53:36.000Z,434.5692443847656
2023-04-18T01:54:38.000Z,434.5708312988281
2023-04-18T01:55:40.000Z,436.3130798339844
2023-04-18T01:56:42.000Z,434.791015625
2023-04-18T01:57:45.000Z,432.60113525390625
2023-04-18T01:58:47.000Z,433.82696533203125
2023-04-18T01:59:49.000Z,433.0185852050781
2023-04-18T02:00:51.000Z,433.3555603027344
2023-04-18T02:01:54.000Z,433.4956970214844
2023-04-18T02:02:56.000Z,431.9516906738281
2023-04-18T02:03:58.000Z,430.54522705078125
2023-04-18T02:05:01.000Z,430.8872375488281
2023-04-18T02:06:03.000Z,431.2599182128906
2023-04-18T02:07:05.000Z,431.967041015625
2023-04-18T02:08:07.000Z,430.680419921875
2023-04-18T02:09:10.000Z,430.0187683105469
2023-04-18T02:10:12.000Z,430.21173095703125
2023-04-18T02:11:14.000Z,429.25555419921875
2023-04-18T02:12:16.000Z,427.12213134765625
2023-04-18T02:13:19.000Z,423.2781066894531
2023-04-18T02:14:21.000Z,424.67694091796875
2023-04-18T02:15:23.000Z,426.6770324707031
2023-04-18T02:16:25.000Z,427.5550231933594
2023-04-18T02:17:28.000Z,426.41656494140625
2023-04-18T02:18:30.000Z,426.42169189453125
2023-04-18T02:19:32.000Z,427.1424865722656
2023-04-18T02:20:35.000Z,427.2470703125
2023-04-18T02:21:37.000Z,425.90997314453125
2023-04-18T02:22:39.000Z,426.9421691894531
2023-04-18T02:23:42.000Z,425.73394775390625
2023-04-18T02:24:44.000Z,427.4813537597656
2023-04-18T02:25:46.000Z,428.21038818359375
2023-04-18T02:26:49.000Z,429.8211364746094
2023-04-18T02:27:51.000Z,431.8018493652344
2023-04-18T02:28:53.000Z,432.7369384765625
2023-04-18T02:29:55.000Z,432.08251953125
2023-04-18T02:30:58.000Z,429.7304992675781
2023-04-18T02:32:00.000Z,429.8561706542969
2023-04-18T02:33:02.000Z,431.0841064453125
2023-04-18T02:34:04.000Z,427.971923828125
2023-04-18T02:35:07.000Z,428.2424011230469
2023-04-18T02:36:09.000Z,428.82232666015625
2023-04-18T02:37:11.000Z,430.8900146484375
2023-04-18T02:38:13.000Z,430.03216552734375
2023-04-18T02:39:16.000Z,429.8188781738281
2023-04-18T02:40:18.000Z,430.57568359375
2023-04-18T02:41:20.000Z,432.3567810058594
2023-04-18T02:42:23.000Z,433.9305419921875
2023-04-18T02:43:25.000Z,432.951904296875
2023-04-18T02:44:27.000Z,432.9078063964844
2023-04-18T02:45:29.000Z,431.0430908203125
2023-04-18T02:46:32.000Z,434.3050231933594
2023-04-18T02:47:34.000Z,431.7828063964844
2023-04-18T02:48:36.000Z,430.439453125
2023-04-18T02:49:38.000Z,429.8830261230469
2023-04-18T02:50:41.000Z,427.7284240722656
2023-04-18T02:51:43.000Z,428.5656433105469
2023-04-18T02:52:45.000Z,426.66650390625
2023-04-18T02:53:47.000Z,425.7371520996094
2023-04-18T02:54:50.000Z,424.8284912109375
2023-04-18T02:55:52.000Z,423.7310791015625
2023-04-18T02:56:54.000Z,426.7777099609375
2023-04-18T02:57:56.000Z,428.859130859375
2023-04-18T02:58:59.000Z,427.66876220703125
2023-04-18T03:00:01.000Z,427.56097412109375
2023-04-18T03:01:03.000Z,428.4647216796875
2023-04-18T03:02:05.000Z,426.4709167480469
2023-04-18T03:03:08.000Z,426.0339050292969
2023-04-18T03:04:10.000Z,426.8555908203125
2023-04-18T03:05:12.000Z,427.0843811035156
2023-04-18T03:06:14.000Z,429.2637939453125
2023-04-18T03:07:17.000Z,428.75518798828125
2023-04-18T03:08:19.000Z,425.59405517578125
2023-04-18T03:09:21.000Z,428.66455078125
2023-04-18T03:10:24.000Z,427.10394287109375
2023-04-18T03:11:26.000Z,428.08441162109375
2023-04-18T03:12:28.000Z,429.62689208984375
2023-04-18T03:13:30.000Z,428.8986511230469
2023-04-18T03:14:32.000Z,426.97161865234375
2023-04-18T03:15:35.000Z,426.24700927734375
2023-04-18T03:16:37.000Z,426.2474670410156
2023-04-18T03:17:39.000Z,424.8926696777344
2023-04-18T03:18:42.000Z,425.08404541015625
2023-04-18T03:19:44.000Z,427.3641662597656
2023-04-18T03:20:46.000Z,427.41455078125
2023-04-18T03:21:49.000Z,426.87603759765625
2023-04-18T03:22:51.000Z,428.4671325683594
2023-04-18T03:23:53.000Z,429.0306701660156
2023-04-18T03:24:55.000Z,426.6286926269531
2023-04-18T03:25:58.000Z,427.6497497558594
2023-04-18T03:27:00.000Z,427.37982177734375
2023-04-18T03:28:03.000Z,429.5164489746094
2023-04-18T03:29:05.000Z,430.5981750488281
2023-04-18T03:30:07.000Z,428.78253173828125
2023-04-18T03:31:09.000Z,430.26495361328125
2023-04-18T03:32:12.000Z,430.2828369140625
2023-04-18T03:33:14.000Z,431.8166809082031
2023-04-18T03:34:16.000Z,429.7720031738281
2023-04-18T03:35:19.000Z,431.9146423339844
2023-04-18T03:36:21.000Z,434.02569580078125
2023-04-18T03:37:23.000Z,431.58343505859375
2023-04-18T03:38:25.000Z,432.1132507324219
2023-04-18T03:39:28.000Z,433.2284851074219
2023-04-18T03:40:30.000Z,430.9265441894531
2023-04-18T03:41:32.000Z,429.8594970703125
2023-04-18T03:42:35.000Z,429.14166259765625
2023-04-18T03:43:37.000Z,429.4412841796875
2023-04-18T03:44:39.000Z,428.9364929199219
2023-04-18T03:45:42.000Z,430.454345703125
2023-04-18T03:46:44.000Z,428.2060546875
2023-04-18T03:47:46.000Z,427.5124206542969
2023-04-18T03:48:49.000Z,428.8034362792969
2023-04-18T03:49:51.000Z,430.6304016113281
2023-04-18T03:50:53.000Z,432.0924987792969
2023-04-18T03:51:55.000Z,432.6048583984375
2023-04-18T03:52:58.000Z,431.2594909667969
2023-04-18T03:54:00.000Z,429.0262145996094
2023-04-18T03:55:02.000Z,427.97955322265625
2023-04-18T03:56:05.000Z,432.2875671386719
2023-04-18T03:57:07.000Z,432.3499755859375
2023-04-18T03:58:09.000Z,434.5839538574219
2023-04-18T03:59:11.000Z,433.4986267089844
2023-04-18T04:00:14.000Z,431.9264831542969
2023-04-18T04:01:16.000Z,430.1216125488281
2023-04-18T04:02:18.000Z,430.3125
2023-04-18T04:03:20.000Z,426.8409729003906
2023-04-18T04:04:23.000Z,426.1103820800781
2023-04-18T04:05:25.000Z,425.5128173828125
2023-04-18T04:06:27.000Z,427.1761474609375
2023-04-18T04:07:29.000Z,425.6938171386719
2023-04-18T04:08:32.000Z,428.75152587890625
2023-04-18T04:09:34.000Z,427.8758239746094
2023-04-18T04:10:36.000Z,425.7150573730469
2023-04-18T04:11:38.000Z,423.021240234375
2023-04-18T04:12:41.000Z,421.8434143066406
2023-04-18T04:13:43.000Z,422.0867614746094
2023-04-18T04:14:45.000Z,421.1675109863281
2023-04-18T04:15:48.000Z,423.1229248046875
2023-04-18T04:16:50.000Z,425.2451477050781
2023-04-18T04:17:52.000Z,425.1528625488281
2023-04-18T04:18:54.000Z,425.27691650390625
2023-04-18T04:19:57.000Z,424.35284423828125
2023-04-18T04:20:59.000Z,424.4305725097656
2023-04-18T04:22:01.000Z,426.1400146484375
2023-04-18T04:23:04.000Z,426.1406555175781
2023-04-18T04:24:06.000Z,424.9339599609375
2023-04-18T04:25:08.000Z,423.29052734375
2023-04-18T04:26:10.000Z,424.5658874511719
2023-04-18T04:27:13.000Z,422.2965393066406
2023-04-18T04:28:15.000Z,422.8884582519531
2023-04-18T04:29:17.000Z,423.5140380859375
2023-04-18T04:30:19.000Z,424.5633239746094
2023-04-18T04:31:22.000Z,425.7916564941406
2023-04-18T04:32:24.000Z,423.9250183105469
2023-04-18T04:33:26.000Z,422.37115478515625
2023-04-18T04:34:29.000Z,422.6628723144531
2023-04-18T04:35:31.000Z,422.99908447265625
2023-04-18T04:36:33.000Z,422.61785888671875
2023-04-18T04:37:35.000Z,422.19927978515625
2023-04-18T04:38:38.000Z,423.4779968261719
2023-04-18T04:39:40.000Z,422.13897705078125
2023-04-18T04:40:42.000Z,423.6263122558594
2023-04-18T04:41:44.000Z,424.514892578125
2023-04-18T04:42:47.000Z,425.7833557128906
2023-04-18T04:43:49.000Z,427.8551330566406
2023-04-18T04:44:51.000Z,428.47869873046875
2023-04-18T04:45:53.000Z,425.95611572265625
2023-04-18T04:46:56.000Z,422.1723327636719
2023-04-18T04:47:58.000Z,423.4240417480469
2023-04-18T04:49:00.000Z,424.58148193359375
2023-04-18T04:50:03.000Z,424.9077453613281
2023-04-18T04:51:05.000Z,427.5039978027344
2023-04-18T04:52:07.000Z,426.9578552246094
2023-04-18T04:53:09.000Z,428.4613342285156
2023-04-18T04:54:12.000Z,426.6195983886719
2023-04-18T04:55:14.000Z,426.62921142578125
2023-04-18T04:56:16.000Z,427.7791442871094
2023-04-18T04:57:18.000Z,429.4261169433594
2023-04-18T04:58:21.000Z,430.742431640625
2023-04-18T04:59:23.000Z,430.6983947753906
2023-04-18T05:00:25.000Z,429.77642822265625
2023-04-18T05:01:28.000Z,429.9818115234375
2023-04-18T05:02:30.000Z,431.0772705078125
2023-04-18T05:03:32.000Z,429.88519287109375
2023-04-18T05:04:34.000Z,428.94940185546875
2023-04-18T05:05:37.000Z,430.43505859375
2023-04-18T05:06:39.000Z,430.09930419921875
2023-04-18T05:07:41.000Z,428.0025939941406
2023-04-18T05:08:43.000Z,428.7207336425781
2023-04-18T05:09:46.000Z,428.73236083984375
2023-04-18T05:10:48.000Z,431.5845642089844
2023-04-18T05:11:50.000Z,433.5517578125
2023-04-18T05:12:53.000Z,432.39471435546875
2023-04-18T05:13:55.000Z,430.64031982421875
2023-04-18T05:14:57.000Z,430.65313720703125
2023-04-18T05:15:59.000Z,430.7465515136719
2023-04-18T05:17:02.000Z,430.8667907714844
2023-04-18T05:18:04.000Z,431.80706787109375
2023-04-18T05:19:06.000Z,432.6140441894531
2023-04-18T05:20:08.000Z,435.6886901855469
2023-04-18T05:21:11.000Z,437.7333068847656
2023-04-18T05:22:13.000Z,434.5316162109375
2023-04-18T05:23:15.000Z,432.94561767578125
2023-04-18T05:24:17.000Z,430.1788330078125
2023-04-18T05:25:20.000Z,427.86065673828125
2023-04-18T05:26:22.000Z,427.6731872558594
2023-04-18T05:27:24.000Z,430.380859375
2023-04-18T05:28:26.000Z,429.9317626953125
2023-04-18T05:29:29.000Z,429.9939270019531
2023-04-18T05:30:31.000Z,429.20660400390625
2023-04-18T05:31:33.000Z,429.19708251953125
2023-04-18T05:32:35.000Z,428.7354431152344
2023-04-18T05:33:38.000Z,428.53228759765625
2023-04-18T05:34:40.000Z,426.5986328125
2023-04-18T05:35:42.000Z,426.2359619140625
2023-04-18T05:36:44.000Z,427.7556457519531
2023-04-18T05:37:47.000Z,426.5880432128906
2023-04-18T05:38:49.000Z,428.216064453125
2023-04-18T05:39:51.000Z,428.98773193359375
2023-04-18T05:40:53.000Z,430.2812805175781
2023-04-18T05:41:56.000Z,431.6244201660156
2023-04-18T05:42:58.000Z,431.6781311035156
2023-04-18T05:44:00.000Z,431.1622009277344
2023-04-18T05:45:03.000Z,431.7409973144531
2023-04-18T05:46:05.000Z,434.44573974609375
2023-04-18T05:47:07.000Z,434.18572998046875
2023-04-18T05:48:10.000Z,433.7556457519531
2023-04-18T05:49:12.000Z,434.3401184082031
2023-04-18T05:50:14.000Z,432.826416015625
2023-04-18T05:51:16.000Z,431.85797119140625
2023-04-18T05:52:19.000Z,433.8838806152344
2023-04-18T05:53:21.000Z,435.4208679199219
2023-04-18T05:54:23.000Z,433.27020263671875
2023-04-18T05:55:25.000Z,435.9903564453125
2023-04-18T05:56:28.000Z,434.8028564453125
2023-04-18T05:57:30.000Z,432.1585388183594
2023-04-18T05:58:32.000Z,430.96734619140625
2023-04-18T05:59:35.000Z,431.47113037109375
2023-04-18T06:00:37.000Z,431.2666320800781
2023-04-18T06:01:39.000Z,430.0943603515625
2023-04-18T06:02:41.000Z,430.55743408203125
2023-04-18T06:03:44.000Z,429.8817138671875
2023-04-18T06:04:46.000Z,429.11474609375
2023-04-18T06:05:48.000Z,428.86859130859375
2023-04-18T06:06:50.000Z,427.9120788574219
2023-04-18T06:07:53.000Z,427.27655029296875
2023-04-18T06:08:55.000Z,428.74652099609375
2023-04-18T06:09:57.000Z,428.5989685058594
2023-04-18T06:10:59.000Z,427.5904541015625
2023-04-18T06:12:02.000Z,428.09613037109375
2023-04-18T06:13:04.000Z,425.77374267578125
2023-04-18T06:14:06.000Z,430.6104431152344
2023-04-18T06:15:09.000Z,429.986083984375
2023-04-18T06:16:11.000Z,429.4841003417969
2023-04-18T06:17:13.000Z,431.50567626953125
2023-04-18T06:18:15.000Z,431.7496337890625
2023-04-18T06:19:18.000Z,432.5472717285156
2023-04-18T06:20:20.000Z,434.80792236328125
2023-04-18T06:21:22.000Z,433.57476806640625
2023-04-18T06:22:25.000Z,434.2132873535156
2023-04-18T06:23:27.000Z,433.5461120605469
2023-04-18T06:24:29.000Z,434.7989501953125
2023-04-18T06:25:31.000Z,436.7425231933594
2023-04-18T06:26:34.000Z,436.2212829589844
2023-04-18T06:27:36.000Z,435.8374328613281
2023-04-18T06:28:38.000Z,434.7550048828125
2023-04-18T06:29:40.000Z,433.3072204589844
2023-04-18T06:30:43.000Z,431.9549865722656
2023-04-18T06:31:45.000Z,430.1263732910156
2023-04-18T06:32:47.000Z,430.2913513183594
2023-04-18T06:33:50.000Z,427.4045715332031
2023-04-18T06:34:52.000Z,425.2432861328125
2023-04-18T06:35:54.000Z,425.03460693359375
2023-04-18T06:36:57.000Z,423.40283203125
2023-04-18T06:37:59.000Z,424.7876892089844
2023-04-18T06:39:01.000Z,425.588134765625
2023-04-18T06:40:03.000Z,424.63128662109375
2023-04-18T06:41:06.000Z,422.8467102050781
2023-04-18T06:42:08.000Z,421.0909423828125
2023-04-18T06:43:10.000Z,422.9383239746094
2023-04-18T06:44:12.000Z,422.3060302734375
2023-04-18T06:45:15.000Z,423.958251953125
2023-04-18T06:46:17.000Z,425.6700134277344
2023-04-18T06:47:19.000Z,427.789306640625
2023-04-18T06:48:22.000Z,429.1289978027344
2023-04-18T06:49:24.000Z,428.7777404785156
2023-04-18T06:50:26.000Z,428.2579345703125
2023-04-18T06:51:28.000Z,427.3835144042969
2023-04-18T06:52:31.000Z,427.7583312988281
2023-04-18T06:53:33.000Z,425.1833190917969
2023-04-18T06:54:35.000Z,424.18389892578125
2023-04-18T06:55:37.000Z,425.85284423828125
2023-04-18T06:56:40.000Z,426.13433837890625
2023-04-18T06:57:42.000Z,428.0415344238281
2023-04-18T06:58:44.000Z,425.328125
2023-04-18T06:59:46.000Z,424.0567626953125
2023-04-18T07:00:49.000Z,425.0114440917969
2023-04-18T07:01:51.000Z,427.1395568847656
2023-04-18T07:02:53.000Z,425.8247375488281
2023-04-18T07:03:55.000Z,425.90478515625
2023-04-18T07:04:58.000Z,427.7264099121094
2023-04-18T07:06:00.000Z,429.179443359375
2023-04-18T07:07:02.000Z,428.69415283203125
2023-04-18T07:08:05.000Z,428.4414978027344
2023-04-18T07:09:07.000Z,427.4266052246094
2023-04-18T07:10:09.000Z,426.6981201171875
2023-04-18T07:11:11.000Z,427.197265625
2023-04-18T07:12:13.000Z,427.8625793457031
2023-04-18T07:13:16.000Z,429.1466064453125
2023-04-18T07:14:18.000Z,430.56402587890625
2023-04-18T07:15:20.000Z,430.1414489746094
2023-04-18T07:16:22.000Z,428.0038146972656
2023-04-18T07:17:25.000Z,424.4458312988281
2023-04-18T07:18:27.000Z,423.77423095703125
2023-04-18T07:19:29.000Z,422.9004211425781
2023-04-18T07:20:31.000Z,422.42864990234375
2023-04-18T07:21:34.000Z,421.7926025390625
2023-04-18T07:22:36.000Z,420.53741455078125
2023-04-18T07:23:38.000Z,418.6419982910156
2023-04-18T07:24:41.000Z,417.16424560546875
2023-04-18T07:25:43.000Z,417.58636474609375
2023-04-18T07:26:45.000Z,416.6225891113281
2023-04-18T07:27:47.000Z,414.212646484375
2023-04-18T07:28:49.000Z,411.85791015625
2023-04-18T07:29:52.000Z,412.3710021972656
2023-04-18T07:30:54.000Z,412.3525695800781
2023-04-18T07:31:56.000Z,413.2835998535156
2023-04-18T07:32:58.000Z,412.2017822265625
2023-04-18T07:34:01.000Z,414.91162109375
2023-04-18T07:35:03.000Z,416.81854248046875
2023-04-18T07:36:05.000Z,416.78985595703125
2023-04-18T07:37:07.000Z,419.70660400390625
2023-04-18T07:38:10.000Z,420.2210388183594
2023-04-18T07:39:12.000Z,421.3518981933594
2023-04-18T07:40:14.000Z,420.30242919921875
2023-04-18T07:41:17.000Z,419.76849365234375
2023-04-18T07:42:19.000Z,419.14923095703125
2023-04-18T07:43:21.000Z,419.20013427734375
2023-04-18T07:44:23.000Z,419.0955810546875
2023-04-18T07:45:26.000Z,420.9888916015625
2023-04-18T07:46:28.000Z,421.8340148925781
2023-04-18T07:47:30.000Z,419.0965270996094
2023-04-18T07:48:33.000Z,419.7876281738281
2023-04-18T07:49:35.000Z,420.9613342285156
2023-04-18T07:50:37.000Z,422.22119140625
2023-04-18T07:51:39.000Z,421.4407653808594
2023-04-18T07:52:42.000Z,422.2563171386719
2023-04-18T07:53:44.000Z,422.388671875
2023-04-18T07:54:46.000Z,425.6813049316406
2023-04-18T07:55:48.000Z,428.2789001464844
2023-04-18T07:56:51.000Z,428.2492370605469
2023-04-18T07:57:53.000Z,426.58642578125
2023-04-18T07:58:55.000Z,425.3814392089844
2023-04-18T07:59:57.000Z,422.0954895019531
2023-04-18T08:01:00.000Z,422.6664733886719
2023-04-18T08:02:02.000Z,420.9720764160156
2023-04-18T08:03:04.000Z,421.6707763671875
2023-04-18T08:04:07.000Z,424.7840881347656
2023-04-18T08:05:09.000Z,425.8356628417969
2023-04-18T08:06:11.000Z,423.6795349121094
2023-04-18T08:07:13.000Z,424.0915222167969
2023-04-18T08:08:16.000Z,425.9619140625
2023-04-18T08:09:18.000Z,428.6706237792969
2023-04-18T08:10:20.000Z,427.89385986328125
2023-04-18T08:11:22.000Z,427.5042419433594
2023-04-18T08:12:25.000Z,424.8998107910156
2023-04-18T08:13:27.000Z,422.1268005371094
2023-04-18T08:14:29.000Z,421.919921875
2023-04-18T08:15:31.000Z,423.4983215332031
2023-04-18T08:16:34.000Z,423.9576416015625
2023-04-18T08:17:36.000Z,422.577392578125
2023-04-18T08:18:38.000Z,424.3482666015625
2023-04-18T08:19:40.000Z,423.8752746582031
2023-04-18T08:20:43.000Z,423.9756774902344
2023-04-18T08:21:45.000Z,423.0124816894531
2023-04-18T08:22:47.000Z,422.80963134765625
2023-04-18T08:23:49.000Z,425.5551452636719
2023-04-18T08:24:52.000Z,424.6220703125
2023-04-18T08:25:54.000Z,422.2684326171875
2023-04-18T08:26:56.000Z,422.28753662109375
2023-04-18T08:27:58.000Z,421.66986083984375
2023-04-18T08:29:01.000Z,419.67333984375
2023-04-18T08:30:03.000Z,421.1407775878906
2023-04-18T08:31:05.000Z,423.909912109375
2023-04-18T08:32:07.000Z,424.0904235839844
2023-04-18T08:33:10.000Z,423.1151428222656
2023-04-18T08:34:12.000Z,422.29180908203125
2023-04-18T08:35:14.000Z,420.5325927734375
2023-04-18T08:36:16.000Z,420.1466369628906
2023-04-18T08:37:19.000Z,418.5388488769531
2023-04-18T08:38:21.000Z,420.1570129394531
2023-04-18T08:39:23.000Z,419.15692138671875
2023-04-18T08:40:25.000Z,419.0384521484375
2023-04-18T08:41:28.000Z,419.413330078125
2023-04-18T08:42:30.000Z,420.8968811035156
2023-04-18T08:43:32.000Z,423.106689453125
2023-04-18T08:44:34.000Z,421.4346008300781
2023-04-18T08:45:37.000Z,420.6900329589844
2023-04-18T08:46:39.000Z,421.0194091796875
2023-04-18T08:47:41.000Z,423.8028259277344
2023-04-18T08:48:43.000Z,425.5197448730469
2023-04-18T08:49:46.000Z,423.973388671875
2023-04-18T08:50:48.000Z,423.50262451171875
2023-04-18T08:51:50.000Z,422.15850830078125
2023-04-18T08:52:53.000Z,421.0691833496094
2023-04-18T08:53:55.000Z,420.1536865234375
2023-04-18T08:54:58.000Z,420.29840087890625
2023-04-18T08:56:00.000Z,419.775146484375
2023-04-18T08:57:03.000Z,420.9180908203125
2023-04-18T08:58:05.000Z,422.7088928222656
2023-04-18T08:59:08.000Z,423.4877014160156
2023-04-18T09:00:10.000Z,424.18756103515625
2023-04-18T09:01:12.000Z,424.83233642578125
2023-04-18T09:02:14.000Z,423.9537048339844
2023-04-18T09:03:17.000Z,423.3552551269531
2023-04-18T09:04:19.000Z,422.7399597167969
2023-04-18T09:05:21.000Z,422.8804931640625
2023-04-18T09:06:23.000Z,424.6151123046875
2023-04-18T09:07:26.000Z,425.84185791015625
2023-04-18T09:08:28.000Z,424.3711853027344
2023-04-18T09:09:30.000Z,424.1170959472656
2023-04-18T09:10:33.000Z,423.6739807128906
2023-04-18T09:11:35.000Z,425.591552734375
2023-04-18T09:12:37.000Z,425.9266662597656
2023-04-18T09:13:39.000Z,425.8885498046875
2023-04-18T09:14:42.000Z,426.37640380859375
2023-04-18T09:15:44.000Z,425.32794189453125
2023-04-18T09:16:46.000Z,423.4032287597656
2023-04-18T09:17:49.000Z,423.25927734375
2023-04-18T09:18:51.000Z,423.1629943847656
2023-04-18T09:19:53.000Z,422.2117614746094
2023-04-18T09:20:55.000Z,421.03857421875
2023-04-18T09:21:58.000Z,418.3139953613281
2023-04-18T09:23:00.000Z,417.97381591796875
2023-04-18T09:24:02.000Z,418.3575439453125
2023-04-18T09:25:04.000Z,416.8282775878906
2023-04-18T09:26:07.000Z,417.8775939941406
2023-04-18T09:27:09.000Z,418.6289978027344
2023-04-18T09:28:11.000Z,419.7091369628906
2023-04-18T09:29:14.000Z,418.1063232421875
2023-04-18T09:30:16.000Z,417.32928466796875
2023-04-18T09:31:18.000Z,419.2950439453125
2023-04-18T09:32:20.000Z,421.1666564941406
2023-04-18T09:33:23.000Z,420.1713562011719
2023-04-18T09:34:25.000Z,419.7774658203125
2023-04-18T09:35:27.000Z,418.8597106933594
2023-04-18T09:36:29.000Z,418.8850402832031
2023-04-18T09:37:32.000Z,418.7444152832031
2023-04-18T09:38:34.000Z,418.1781311035156